createdAt,value
2023-04-18T00:00:18.477Z,101554.28
2023-04-18T00:03:06.527Z,101551.06
2023-04-18T00:05:33.903Z,101549.16
2023-04-18T00:08:01.349Z,101558.38
2023-04-18T00:10:28.517Z,101550.94
2023-04-18T00:12:55.965Z,101550.72
2023-04-18T00:15:24.111Z,101563.34
2023-04-18T00:18:19.933Z,101557.34
2023-04-18T00:20:47.248Z,101564.59
2023-04-18T00:23:14.905Z,101566.69
2023-04-18T00:25:42.076Z,101555.25
2023-04-18T00:28:09.975Z,101560.84
2023-04-18T00:30:37.262Z,101564.66
2023-04-18T00:33:05.494Z,101578.34
2023-04-18T00:35:32.808Z,101559.75
2023-04-18T00:38:00.268Z,101558.91
2023-04-18T00:40:27.611Z,101556.41
2023-04-18T00:42:55.853Z,101562.25
2023-04-18T00:45:23.072Z,101555.47
2023-04-18T00:47:50.739Z,101557.13
2023-04-18T00:50:18.462Z,101553.13
2023-04-18T00:52:47.012Z,101564.44
2023-04-18T00:55:14.589Z,101555.69
2023-04-18T00:57:42.791Z,101561.91
2023-04-18T01:00:10.574Z,101557.38
2023-04-18T01:02:39.828Z,101558.56
2023-04-18T01:05:08.153Z,101553.22
2023-04-18T01:07:38.113Z,101567.94
2023-04-18T01:10:06.041Z,101559.19
2023-04-18T01:12:33.661Z,101560.59
2023-04-18T01:15:00.887Z,101561.69
2023-04-18T01:17:31.697Z,101559.34
2023-04-18T01:24:08.586Z,101559.94
2023-04-18T01:26:35.969Z,101564.81
2023-04-18T01:29:06.370Z,101569.09
2023-04-18T01:31:38.051Z,101559.66
2023-04-18T01:34:06.303Z,101568.88
2023-04-18T01:36:34.005Z,101571.41
2023-04-18T01:39:02.384Z,101562.94
2023-04-18T01:41:32.895Z,101568.75
2023-04-18T01:44:00.772Z,101557.38
2023-04-18T01:46:28.984Z,101564.06
2023-04-18T01:48:57.173Z,101565.66
2023-04-18T01:51:24.396Z,101560.03
2023-04-18T01:53:54.497Z,101563.34
2023-04-18T01:56:21.821Z,101555.41
2023-04-18T01:58:49.325Z,101564.59
2023-04-18T02:01:16.619Z,101554.84
2023-04-18T02:03:44.472Z,101552.38
2023-04-18T02:06:13.352Z,101557.53
2023-04-18T02:08:41.084Z,101555.00
2023-04-18T02:11:08.364Z,101549.06
2023-04-18T02:13:35.827Z,101541.97
2023-04-18T02:16:12.932Z,101542.72
2023-04-18T02:18:43.263Z,101545.31
2023-04-18T02:21:11.333Z,101529.31
2023-04-18T02:23:38.836Z,101533.63
2023-04-18T02:26:06.646Z,101531.56
2023-04-18T02:28:34.289Z,101535.47
2023-04-18T02:31:03.734Z,101535.28
2023-04-18T02:33:31.291Z,101534.56
2023-04-18T02:35:58.490Z,101535.22
2023-04-18T02:38:25.964Z,101532.97
2023-04-18T02:40:53.167Z,101530.72
2023-04-18T02:43:21.552Z,101526.66
2023-04-18T02:45:49.066Z,101525.03
2023-04-18T02:48:16.682Z,101532.38
2023-04-18T02:50:45.666Z,101536.28
2023-04-18T02:53:13.463Z,101530.75
2023-04-18T02:55:51.697Z,101535.22
2023-04-18T02:58:20.613Z,101528.34
2023-04-18T03:01:19.437Z,101537.41
2023-04-18T03:04:02.597Z,101544.47
2023-04-18T03:06:37.285Z,101537.47
2023-04-18T03:09:04.960Z,101537.13
2023-04-18T03:11:35.012Z,101540.41
2023-04-18T03:14:02.837Z,101532.78
2023-04-18T03:16:37.649Z,101541.03
2023-04-18T03:19:07.113Z,101539.53
2023-04-18T03:21:34.371Z,101555.75
2023-04-18T03:24:02.246Z,101542.06
2023-04-18T03:26:29.640Z,101545.88
2023-04-18T03:28:57.742Z,101548.19
2023-04-18T03:31:25.530Z,101540.91
2023-04-18T03:33:53.114Z,101549.72
2023-04-18T03:36:25.353Z,101549.25
2023-04-18T03:38:55.028Z,101557.81
2023-04-18T03:41:22.351Z,101557.03
2023-04-18T03:43:49.918Z,101557.84
2023-04-18T03:46:17.868Z,101555.66
2023-04-18T03:48:46.365Z,101562.63
2023-04-18T03:51:14.423Z,101566.28
2023-04-18T03:53:41.960Z,101553.44
2023-04-18T03:56:09.420Z,101552.13
2023-04-18T03:58:47.754Z,101557.66
2023-04-18T04:01:15.083Z,101557.22
2023-04-18T04:03:42.691Z,101561.06
2023-04-18T04:06:10.100Z,101548.78
2023-04-18T04:08:37.554Z,101559.47
2023-04-18T04:11:05.348Z,101566.22
2023-04-18T04:13:33.883Z,101563.81
2023-04-18T04:16:01.761Z,101568.41
2023-04-18T04:18:32.676Z,101569.09
2023-04-18T04:21:03.326Z,101581.81
2023-04-18T04:23:48.270Z,101576.25
2023-04-18T04:26:30.796Z,101571.06
2023-04-18T04:29:13.920Z,101566.56
2023-04-18T04:31:43.120Z,101571.13
2023-04-18T04:34:10.671Z,101565.53
2023-04-18T04:36:38.225Z,101573.72
2023-04-18T04:39:08.734Z,101588.88
2023-04-18T04:41:58.755Z,101580.22
2023-04-18T04:44:31.714Z,101582.59
2023-04-18T04:46:59.504Z,101581.28
2023-04-18T04:49:32.924Z,101589.19
2023-04-18T04:52:01.893Z,101590.34
2023-04-18T04:54:29.990Z,101578.69
2023-04-18T04:56:57.368Z,101586.44
2023-04-18T04:59:26.067Z,101583.38
2023-04-18T05:01:53.449Z,101581.75
2023-04-18T05:04:21.208Z,101587.34
2023-04-18T05:06:48.585Z,101595.84
2023-04-18T05:09:16.183Z,101590.03
2023-04-18T05:11:43.396Z,101583.91
2023-04-18T05:14:12.644Z,101587.13
2023-04-18T05:16:40.419Z,101588.59
2023-04-18T05:19:07.959Z,101588.63
2023-04-18T05:21:35.266Z,101600.22
2023-04-18T05:24:02.710Z,101595.44
2023-04-18T05:26:29.839Z,101596.84
2023-04-18T05:28:57.341Z,101604.44
2023-04-18T05:31:24.700Z,101599.31
2023-04-18T05:33:52.222Z,101592.13
2023-04-18T05:36:19.513Z,101597.84
2023-04-18T05:38:47.017Z,101593.88
2023-04-18T05:41:14.178Z,101607.75
2023-04-18T05:43:43.020Z,101602.13
2023-04-18T05:46:13.534Z,101595.16
2023-04-18T05:48:41.279Z,101599.22
2023-04-18T05:51:10.546Z,101599.31
2023-04-18T05:53:39.055Z,101597.78
2023-04-18T05:56:06.931Z,101595.00
2023-04-18T05:58:34.512Z,101595.69
2023-04-18T06:01:01.825Z,101593.75
2023-04-18T06:03:29.471Z,101606.81
2023-04-18T06:05:56.879Z,101602.31
2023-04-18T06:08:24.602Z,101605.28
2023-04-18T06:10:51.824Z,101616.72
2023-04-18T06:13:19.339Z,101617.97
2023-04-18T06:15:46.713Z,101612.22
2023-04-18T06:18:14.236Z,101611.66
2023-04-18T06:20:42.239Z,101618.91
2023-04-18T06:23:09.937Z,101611.16
2023-04-18T06:25:37.745Z,101619.00
2023-04-18T06:28:05.531Z,101609.97
2023-04-18T06:30:32.738Z,101609.34
2023-04-18T06:33:00.496Z,101605.03
2023-04-18T06:35:29.155Z,101603.31
2023-04-18T06:37:57.208Z,101605.91
2023-04-18T06:40:24.467Z,101608.34
2023-04-18T06:42:51.948Z,101612.09
2023-04-18T06:45:19.366Z,101611.53
2023-04-18T06:47:47.874Z,101619.03
2023-04-18T06:50:15.994Z,101615.19
2023-04-18T06:52:46.331Z,101608.28
2023-04-18T06:55:14.050Z,101621.09
2023-04-18T06:57:42.938Z,101598.31
2023-04-18T07:00:10.866Z,101616.50
2023-04-18T07:02:39.571Z,101611.28
2023-04-18T07:05:07.726Z,101620.88
2023-04-18T07:07:35.651Z,101622.06
2023-04-18T07:10:03.001Z,101627.50
2023-04-18T07:12:30.877Z,101634.06
2023-04-18T07:14:58.179Z,101632.91
2023-04-18T07:17:25.729Z,101631.56
2023-04-18T07:19:52.965Z,101624.13
2023-04-18T07:22:20.525Z,101632.84
2023-04-18T07:24:47.717Z,101634.53
2023-04-18T07:27:15.345Z,101648.88
2023-04-18T07:29:42.521Z,101644.69
2023-04-18T07:32:10.941Z,101635.97
2023-04-18T07:34:40.366Z,101648.03
2023-04-18T07:37:07.960Z,101646.72
2023-04-18T07:39:36.300Z,101661.00
2023-04-18T07:42:04.657Z,101646.19
2023-04-18T07:44:31.964Z,101646.72
2023-04-18T07:46:59.628Z,101657.41
2023-04-18T08:03:03.934Z,101649.81
2023-04-18T08:05:31.296Z,101645.50
2023-04-18T08:07:58.808Z,101657.91
2023-04-18T08:10:26.052Z,101662.44
2023-04-18T08:12:53.542Z,101655.84
2023-04-18T08:15:20.862Z,101656.88
2023-04-18T08:17:49.256Z,101653.56
2023-04-18T08:20:16.478Z,101666.03
2023-04-18T08:22:57.385Z,101667.22
2023-04-18T08:30:37.017Z,101658.41
2023-04-18T08:37:38.406Z,101677.94
2023-04-18T08:40:07.393Z,101673.47
2023-04-18T08:42:37.185Z,101676.88
2023-04-18T08:45:09.645Z,101669.06
2023-04-18T08:47:37.388Z,101667.50
2023-04-18T08:50:04.861Z,101677.06
2023-04-18T08:52:34.296Z,101663.88
2023-04-18T08:55:02.836Z,101680.56
2023-04-18T08:57:31.517Z,101673.03
2023-04-18T09:00:00.840Z,101668.44
2023-04-18T09:02:42.596Z,101663.00
2023-04-18T09:05:11.207Z,101668.81
2023-04-18T09:07:42.111Z,101655.31
2023-04-18T09:18:42.518Z,101652.03
2023-04-18T09:21:19.475Z,101656.13
2023-04-18T09:23:50.466Z,101667.91
2023-04-18T09:31:26.609Z,101667.16
2023-04-18T09:37:57.249Z,101649.56
2023-04-18T09:40:24.874Z,101667.16
2023-04-18T09:42:54.383Z,101660.53
2023-04-18T09:45:23.774Z,101667.44
2023-04-18T09:47:52.504Z,101657.72
2023-04-18T09:50:20.975Z,101661.13
2023-04-18T09:52:48.705Z,101655.78
2023-04-18T09:55:19.615Z,101656.72
2023-04-18T09:57:48.960Z,101664.66
2023-04-18T10:00:30.972Z,101656.06
2023-04-18T10:03:08.859Z,101655.69
2023-04-18T10:05:39.406Z,101667.78
2023-04-18T10:08:08.010Z,101654.13
2023-04-18T10:10:38.529Z,101649.44
2023-04-18T10:13:11.742Z,101649.00
2023-04-18T10:26:18.211Z,101648.75
2023-04-18T10:33:31.042Z,101654.28
2023-04-18T10:36:00.874Z,101654.19
2023-04-18T10:38:28.747Z,101654.75
2023-04-18T10:41:32.785Z,101655.16
2023-04-18T10:44:08.964Z,101648.56
2023-04-18T10:46:52.825Z,101656.91
2023-04-18T10:49:31.103Z,101645.31
2023-04-18T10:52:02.236Z,101647.94
2023-04-18T10:54:32.252Z,101652.09
2023-04-18T10:57:04.722Z,101646.00
2023-04-18T10:59:33.836Z,101652.63
2023-04-18T11:02:26.411Z,101649.94
2023-04-18T11:04:56.108Z,101642.63
2023-04-18T11:12:35.073Z,101634.41
2023-04-18T11:15:09.348Z,101632.59
2023-04-18T11:17:40.164Z,101626.63
2023-04-18T11:20:11.362Z,101627.81
2023-04-18T11:22:59.610Z,101630.94
2023-04-18T11:25:32.263Z,101617.97
2023-04-18T11:29:04.785Z,101624.75
2023-04-18T11:36:05.701Z,101618.47
2023-04-18T11:38:33.528Z,101623.53
2023-04-18T11:41:03.022Z,101604.34
2023-04-18T11:43:30.604Z,101611.34
2023-04-18T11:45:59.812Z,101610.91
2023-04-18T11:48:37.283Z,101615.13
2023-04-18T11:51:06.502Z,101606.44
2023-04-18T11:53:37.227Z,101599.97
2023-04-18T11:56:05.638Z,101613.59
2023-04-18T11:58:33.524Z,101604.13
2023-04-18T12:01:16.182Z,101595.28
2023-04-18T12:03:59.278Z,101600.50
2023-04-18T12:06:28.367Z,101605.44
2023-04-18T12:09:00.242Z,101593.00
2023-04-18T12:11:27.690Z,101609.53
2023-04-18T12:13:56.932Z,101594.75
2023-04-18T12:16:28.361Z,101588.84
2023-04-18T12:19:00.876Z,101596.34
2023-04-18T12:21:30.296Z,101595.25
2023-04-18T12:28:28.805Z,101588.13
2023-04-18T12:30:56.132Z,101585.81
2023-04-18T12:33:23.832Z,101587.09
2023-04-18T12:35:52.698Z,101581.94
2023-04-18T12:38:22.334Z,101564.69
2023-04-18T12:40:51.039Z,101571.00
2023-04-18T12:43:19.380Z,101568.47
2023-04-18T12:45:47.174Z,101586.41
2023-04-18T12:48:14.811Z,101577.66
2023-04-18T12:50:42.091Z,101574.97
2023-04-18T12:53:09.681Z,101575.78
2023-04-18T12:55:37.084Z,101575.59
2023-04-18T12:58:04.576Z,101574.25
2023-04-18T13:00:32.913Z,101571.69
2023-04-18T13:03:00.966Z,101565.78
2023-04-18T13:05:33.037Z,101571.56
2023-04-18T13:10:32.347Z,101564.56
2023-04-18T13:12:59.963Z,101557.47
2023-04-18T13:15:27.729Z,101555.09
2023-04-18T13:18:04.474Z,101560.66
2023-04-18T13:20:32.522Z,101572.78
2023-04-18T13:23:00.349Z,101565.56
2023-04-18T13:25:27.509Z,101560.69
2023-04-18T13:27:55.285Z,101565.88
2023-04-18T13:30:23.628Z,101574.00
2023-04-18T13:32:51.334Z,101560.88
2023-04-18T13:35:18.634Z,101559.13
2023-04-18T13:37:46.405Z,101564.16
2023-04-18T13:40:14.002Z,101564.94
2023-04-18T13:42:41.513Z,101569.06
2023-04-18T13:45:09.008Z,101563.63
2023-04-18T13:47:37.104Z,101578.88
2023-04-18T13:50:04.680Z,101568.13
2023-04-18T13:52:32.292Z,101572.94
2023-04-18T13:54:59.522Z,101568.81
2023-04-18T13:57:28.468Z,101565.16
2023-04-18T13:59:55.694Z,101575.44
2023-04-18T14:02:23.420Z,101558.75
2023-04-18T14:04:52.143Z,101565.97
2023-04-18T14:07:19.770Z,101563.25
2023-04-18T14:09:48.241Z,101569.06
2023-04-18T14:12:16.170Z,101558.06
2023-04-18T14:14:43.316Z,101560.28
2023-04-18T14:17:11.598Z,101556.72
2023-04-18T14:19:38.779Z,101552.63
2023-04-18T14:22:07.915Z,101560.50
2023-04-18T14:24:36.505Z,101556.72
2023-04-18T14:27:04.075Z,101559.28
2023-04-18T14:29:31.228Z,101561.34
2023-04-18T14:31:58.752Z,101538.19
2023-04-18T14:34:26.030Z,101545.56
2023-04-18T14:36:53.612Z,101554.09
2023-04-18T14:39:21.695Z,101540.63
2023-04-18T14:41:49.214Z,101535.53
2023-04-18T14:44:17.368Z,101541.88
2023-04-18T14:46:44.864Z,101532.22
2023-04-18T14:49:12.444Z,101541.34
2023-04-18T14:51:40.035Z,101540.16
2023-04-18T14:54:07.367Z,101538.25
2023-04-18T14:56:34.898Z,101536.97
2023-04-18T14:59:02.746Z,101538.13
2023-04-18T15:01:30.446Z,101534.09
2023-04-18T15:03:57.774Z,101532.66
2023-04-18T15:06:25.595Z,101523.50
2023-04-18T15:08:53.022Z,101528.47
2023-04-18T15:11:20.516Z,101529.97
2023-04-18T15:13:47.833Z,101528.28
2023-04-18T15:16:15.941Z,101527.13
2023-04-18T15:18:43.910Z,101530.34
2023-04-18T15:21:11.611Z,101534.78
2023-04-18T15:23:38.785Z,101533.19
2023-04-18T15:26:06.477Z,101528.19
2023-04-18T15:28:33.747Z,101536.63
2023-04-18T15:31:01.255Z,101536.75
2023-04-18T15:33:28.679Z,101525.69
2023-04-18T15:35:56.170Z,101520.59
2023-04-18T15:38:23.348Z,101530.03
2023-04-18T15:40:51.227Z,101519.13
2023-04-18T15:43:18.467Z,101514.34
2023-04-18T15:45:46.997Z,101527.00
2023-04-18T15:48:14.504Z,101510.66
2023-04-18T15:50:42.552Z,101514.97
2023-04-18T15:53:09.874Z,101520.59
2023-04-18T15:55:37.509Z,101516.25
2023-04-18T15:58:05.132Z,101514.78
2023-04-18T16:00:32.815Z,101522.94
2023-04-18T16:03:00.067Z,101523.91
2023-04-18T16:05:27.614Z,101520.28
2023-04-18T16:07:56.360Z,101509.13
2023-04-18T16:10:24.012Z,101515.25
2023-04-18T16:12:51.269Z,101527.22
2023-04-18T16:15:18.810Z,101516.06
2023-04-18T16:17:46.241Z,101517.84
2023-04-18T16:20:13.825Z,101523.50
2023-04-18T16:22:41.064Z,101519.75
2023-04-18T16:25:09.331Z,101526.03
2023-04-18T16:27:36.526Z,101517.84
2023-04-18T16:30:05.197Z,101531.56
2023-04-18T16:32:32.620Z,101506.94
2023-04-18T16:35:00.417Z,101517.97
2023-04-18T16:37:27.615Z,101511.63
2023-04-18T16:39:55.312Z,101515.34
2023-04-18T16:42:22.829Z,101502.50
2023-04-18T16:44:50.648Z,101502.59
2023-04-18T16:47:17.878Z,101498.09
2023-04-18T16:49:47.715Z,101511.53
2023-04-18T16:52:15.114Z,101505.84
2023-04-18T16:54:42.637Z,101501.00
2023-04-18T16:57:10.299Z,101504.97
2023-04-18T16:59:37.782Z,101511.00
2023-04-18T17:02:05.183Z,101514.22
2023-04-18T17:04:32.908Z,101520.34
2023-04-18T17:07:00.768Z,101522.06
2023-04-18T17:09:28.367Z,101510.13
2023-04-18T17:11:57.908Z,101523.84
2023-04-18T17:14:25.376Z,101522.41
2023-04-18T17:16:53.701Z,101524.25
2023-04-18T17:19:22.974Z,101526.66
2023-04-18T17:21:51.051Z,101521.56
2023-04-18T17:24:18.939Z,101529.00
2023-04-18T17:26:46.332Z,101539.34
2023-04-18T17:29:14.116Z,101528.06
2023-04-18T17:31:41.765Z,101527.16
2023-04-18T17:34:09.411Z,101532.28
2023-04-18T17:36:36.679Z,101531.91
2023-04-18T17:39:07.027Z,101541.78
2023-04-18T17:41:38.949Z,101531.47
2023-04-18T17:44:10.422Z,101541.44
2023-04-18T17:46:37.777Z,101547.25
2023-04-18T17:49:05.575Z,101540.56
2023-04-18T17:51:32.880Z,101548.63
2023-04-18T17:54:00.421Z,101553.72
2023-04-18T17:56:27.680Z,101534.88
2023-04-18T17:58:56.691Z,101539.94
2023-04-18T18:01:26.200Z,101548.25
2023-04-18T18:03:54.217Z,101544.50
2023-04-18T18:06:21.694Z,101544.31
2023-04-18T18:08:49.253Z,101557.72
2023-04-18T18:11:16.467Z,101547.13
2023-04-18T18:13:44.408Z,101542.69
2023-04-18T18:16:12.689Z,101535.91
2023-04-18T18:18:40.356Z,101526.06
2023-04-18T18:21:07.652Z,101557.44
2023-04-18T18:23:35.161Z,101549.78
2023-04-18T18:26:02.416Z,101542.41
2023-04-18T18:28:29.924Z,101548.38
2023-04-18T18:30:57.178Z,101541.00
2023-04-18T18:33:24.841Z,101545.41
2023-04-18T18:35:52.030Z,101542.34
2023-04-18T18:38:19.739Z,101541.69
2023-04-18T18:40:47.059Z,101546.06
2023-04-18T18:43:14.575Z,101529.16
2023-04-18T18:45:42.063Z,101537.75
2023-04-18T18:48:10.427Z,101536.25
2023-04-18T18:50:37.860Z,101535.56
2023-04-18T18:53:06.254Z,101540.25
2023-04-18T18:55:33.613Z,101528.56
2023-04-18T18:58:01.226Z,101540.22
2023-04-18T19:00:28.559Z,101534.31
2023-04-18T19:02:56.241Z,101535.56
2023-04-18T19:05:23.567Z,101531.41
2023-04-18T19:07:51.613Z,101527.22
2023-04-18T19:10:18.915Z,101525.03
2023-04-18T19:12:46.522Z,101531.41
2023-04-18T19:15:13.859Z,101529.88
2023-04-18T19:17:41.767Z,101518.31
2023-04-18T19:20:09.367Z,101521.88
2023-04-18T19:22:38.048Z,101504.56
2023-04-18T19:25:05.675Z,101517.06
2023-04-18T19:27:33.228Z,101522.09
2023-04-18T19:30:00.680Z,101521.94
2023-04-18T19:32:28.301Z,101522.69
2023-04-18T19:34:55.940Z,101514.41
2023-04-18T19:37:23.452Z,101514.41
2023-04-18T19:39:50.816Z,101503.28
2023-04-18T19:42:18.363Z,101513.97
2023-04-18T19:44:45.630Z,101504.44
2023-04-18T19:47:13.243Z,101508.06
2023-04-18T19:49:40.714Z,101500.59
2023-04-18T19:52:08.170Z,101495.47
2023-04-18T19:54:35.813Z,101501.91
2023-04-18T19:57:04.733Z,101499.84
2023-04-18T19:59:32.212Z,101482.81
2023-04-18T20:02:03.307Z,101472.13
2023-04-18T20:04:34.391Z,101470.78
2023-04-18T20:07:02.739Z,101479.97
2023-04-18T20:09:29.951Z,101467.72
2023-04-18T20:12:00.543Z,101462.50
2023-04-18T20:14:28.862Z,101462.53
2023-04-18T20:16:57.066Z,101458.25
2023-04-18T20:19:29.909Z,101454.06
2023-04-18T20:21:57.544Z,101453.00
2023-04-18T20:24:28.038Z,101455.38
2023-04-18T20:26:55.633Z,101440.28
2023-04-18T20:29:22.824Z,101442.47
2023-04-18T20:31:50.558Z,101437.00
2023-04-18T20:34:17.815Z,101427.50
2023-04-18T20:36:46.636Z,101430.75
2023-04-18T20:39:14.221Z,101424.09
2023-04-18T20:41:48.616Z,101424.09
2023-04-18T20:44:16.925Z,101411.44
2023-04-18T20:46:44.740Z,101397.00
2023-04-18T20:49:12.105Z,101405.78
2023-04-18T20:51:39.678Z,101403.75
2023-04-18T20:54:06.916Z,101387.28
2023-04-18T20:56:36.887Z,101395.53
2023-04-18T20:59:04.985Z,101371.75
2023-04-18T21:01:32.566Z,101372.28
2023-04-18T21:04:00.078Z,101379.00
2023-04-18T21:06:28.388Z,101364.19
2023-04-18T21:08:55.661Z,101366.09
2023-04-18T21:11:23.699Z,101366.69
2023-04-18T21:13:50.973Z,101358.25
2023-04-18T21:16:18.613Z,101356.25
2023-04-18T21:18:46.101Z,101348.25
2023-04-18T21:21:13.739Z,101349.69
2023-04-18T21:23:42.770Z,101342.66
2023-04-18T21:26:12.689Z,101327.78
2023-04-18T21:28:53.887Z,101330.66
2023-04-18T21:31:21.426Z,101335.50
2023-04-18T21:33:52.105Z,101342.03
2023-04-18T21:36:19.977Z,101326.09
2023-04-18T21:38:47.229Z,101333.91
2023-04-18T21:41:17.065Z,101333.53
2023-04-18T21:43:44.653Z,101324.09
2023-04-18T21:46:12.570Z,101320.16
2023-04-18T21:48:41.092Z,101323.59
2023-04-18T21:51:10.018Z,101320.66
2023-04-18T21:53:38.653Z,101304.66
2023-04-18T21:56:07.134Z,101301.59
2023-04-18T21:58:34.659Z,101300.06
2023-04-18T22:01:02.368Z,101307.47
2023-04-18T22:03:30.003Z,101303.53
2023-04-18T22:05:58.599Z,101298.78
2023-04-18T22:08:26.406Z,101294.03
2023-04-18T22:10:55.719Z,101278.41
2023-04-18T22:13:23.513Z,101301.00
2023-04-18T22:15:51.979Z,101270.31
2023-04-18T22:18:19.441Z,101281.66
2023-04-18T22:20:47.121Z,101268.56
2023-04-18T22:23:14.502Z,101263.22
2023-04-18T22:25:42.210Z,101261.06
2023-04-18T22:28:09.585Z,101268.66
2023-04-18T22:30:37.318Z,101270.53
2023-04-18T22:33:04.760Z,101258.28
2023-04-18T22:35:32.516Z,101256.06
2023-04-18T22:37:59.929Z,101255.56
2023-04-18T22:40:27.700Z,101244.75
2023-04-18T22:42:55.271Z,101244.09
2023-04-18T22:45:22.952Z,101246.31
2023-04-18T22:47:50.320Z,101247.34
2023-04-18T22:50:18.002Z,101232.63
2023-04-18T22:52:45.442Z,101236.16
2023-04-18T22:55:16.458Z,101223.88
2023-04-18T22:57:43.997Z,101234.53
2023-04-18T23:00:12.498Z,101219.00
2023-04-18T23:02:40.267Z,101215.66
2023-04-18T23:05:09.169Z,101213.00
2023-04-18T23:07:36.581Z,101209.34
2023-04-18T23:10:06.637Z,101205.16
2023-04-18T23:12:34.138Z,101201.25
2023-04-18T23:15:01.849Z,101201.81
2023-04-18T23:17:29.277Z,101198.56
2023-04-18T23:22:24.411Z,101183.69
2023-04-18T23:24:52.426Z,101174.06
2023-04-18T23:27:19.821Z,101188.53
2023-04-18T23:29:48.888Z,101189.78
2023-04-18T23:32:16.648Z,101197.50
2023-04-18T23:34:46.149Z,101198.81
2023-04-18T23:37:13.533Z,101204.78
2023-04-18T23:39:41.316Z,101189.66
2023-04-18T23:42:09.206Z,101199.22
2023-04-18T23:44:36.956Z,101182.66
2023-04-18T23:47:04.498Z,101192.66
2023-04-18T23:49:32.302Z,101200.03
2023-04-18T23:51:59.904Z,101199.03
2023-04-18T23:54:27.567Z,101189.47
2023-04-18T23:56:54.924Z,101188.34
2023-04-18T23:59:22.700Z,101182.19
